sensor_id;sensor_type;location;lat;lon;timestamp;P1;durP1;ratioP1;P2;durP2;ratioP2
25503;SDS011;13410;52.114;5.718;2023-05-31T00:01:58;11.77;;;5.30;;
25503;SDS011;13410;52.114;5.718;2023-05-31T00:04:24;13.02;;;5.20;;
25503;SDS011;13410;52.114;5.718;2023-05-31T00:06:49;10.45;;;4.75;;
25503;SDS011;13410;52.114;5.718;2023-05-31T00:09:15;8.65;;;5.35;;
25503;SDS011;13410;52.114;5.718;2023-05-31T00:11:41;8.57;;;4.80;;
25503;SDS011;13410;52.114;5.718;2023-05-31T00:14:06;10.07;;;5.45;;
25503;SDS011;13410;52.114;5.718;2023-05-31T00:16:32;7.45;;;4.80;;
25503;SDS011;13410;52.114;5.718;2023-05-31T00:18:58;9.48;;;5.40;;
25503;SDS011;13410;52.114;5.718;2023-05-31T00:21:24;9.73;;;5.53;;
25503;SDS011;13410;52.114;5.718;2023-05-31T00:23:49;9.07;;;5.60;;
25503;SDS011;13410;52.114;5.718;2023-05-31T00:26:15;10.38;;;5.95;;
25503;SDS011;13410;52.114;5.718;2023-05-31T00:28:40;10.38;;;5.70;;
25503;SDS011;13410;52.114;5.718;2023-05-31T00:31:06;9.88;;;5.70;;
25503;SDS011;13410;52.114;5.718;2023-05-31T00:33:31;9.65;;;5.78;;
25503;SDS011;13410;52.114;5.718;2023-05-31T00:35:57;10.13;;;5.50;;
25503;SDS011;13410;52.114;5.718;2023-05-31T00:38:22;13.00;;;6.15;;
25503;SDS011;13410;52.114;5.718;2023-05-31T00:40:48;9.02;;;5.30;;
25503;SDS011;13410;52.114;5.718;2023-05-31T00:43:13;9.30;;;5.78;;
25503;SDS011;13410;52.114;5.718;2023-05-31T00:45:39;10.55;;;5.88;;
25503;SDS011;13410;52.114;5.718;2023-05-31T00:48:05;10.13;;;5.75;;
25503;SDS011;13410;52.114;5.718;2023-05-31T00:50:31;8.73;;;5.82;;
25503;SDS011;13410;52.114;5.718;2023-05-31T00:52:57;9.65;;;5.90;;
25503;SDS011;13410;52.114;5.718;2023-05-31T00:55:24;9.73;;;5.57;;
25503;SDS011;13410;52.114;5.718;2023-05-31T00:57:50;10.32;;;5.97;;
25503;SDS011;13410;52.114;5.718;2023-05-31T01:00:16;10.38;;;6.05;;
25503;SDS011;13410;52.114;5.718;2023-05-31T01:02:42;10.55;;;5.97;;
25503;SDS011;13410;52.114;5.718;2023-05-31T01:05:08;10.50;;;5.78;;
25503;SDS011;13410;52.114;5.718;2023-05-31T01:07:34;12.85;;;6.03;;
25503;SDS011;13410;52.114;5.718;2023-05-31T01:10:01;10.70;;;5.47;;
25503;SDS011;13410;52.114;5.718;2023-05-31T01:12:35;13.52;;;6.10;;
25503;SDS011;13410;52.114;5.718;2023-05-31T01:15:21;10.57;;;5.90;;
25503;SDS011;13410;52.114;5.718;2023-05-31T01:20:49;9.38;;;5.32;;
25503;SDS011;13410;52.114;5.718;2023-05-31T01:28:38;12.05;;;6.22;;
25503;SDS011;13410;52.114;5.718;2023-05-31T01:31:07;11.63;;;6.18;;
25503;SDS011;13410;52.114;5.718;2023-05-31T01:36:02;10.77;;;6.28;;
25503;SDS011;13410;52.114;5.718;2023-05-31T01:38:28;8.57;;;5.72;;
25503;SDS011;13410;52.114;5.718;2023-05-31T01:40:54;10.80;;;5.75;;
25503;SDS011;13410;52.114;5.718;2023-05-31T01:43:21;13.05;;;6.22;;
25503;SDS011;13410;52.114;5.718;2023-05-31T01:45:49;9.45;;;5.85;;
25503;SDS011;13410;52.114;5.718;2023-05-31T01:48:16;10.02;;;5.78;;
25503;SDS011;13410;52.114;5.718;2023-05-31T01:50:42;14.20;;;6.18;;
25503;SDS011;13410;52.114;5.718;2023-05-31T01:53:10;12.80;;;6.25;;
25503;SDS011;13410;52.114;5.718;2023-05-31T01:55:35;11.65;;;6.28;;
25503;SDS011;13410;52.114;5.718;2023-05-31T01:58:01;11.38;;;6.07;;
25503;SDS011;13410;52.114;5.718;2023-05-31T02:00:28;11.93;;;6.25;;
25503;SDS011;13410;52.114;5.718;2023-05-31T02:02:55;9.68;;;6.13;;
25503;SDS011;13410;52.114;5.718;2023-05-31T02:05:22;10.43;;;6.13;;
25503;SDS011;13410;52.114;5.718;2023-05-31T02:07:48;10.95;;;5.85;;
25503;SDS011;13410;52.114;5.718;2023-05-31T02:10:14;11.75;;;6.25;;
25503;SDS011;13410;52.114;5.718;2023-05-31T02:12:40;12.30;;;6.45;;
25503;SDS011;13410;52.114;5.718;2023-05-31T02:15:06;13.50;;;6.35;;
25503;SDS011;13410;52.114;5.718;2023-05-31T02:17:38;11.15;;;6.18;;
25503;SDS011;13410;52.114;5.718;2023-05-31T02:20:09;12.63;;;5.65;;
25503;SDS011;13410;52.114;5.718;2023-05-31T02:22:35;10.45;;;6.10;;
25503;SDS011;13410;52.114;5.718;2023-05-31T02:25:01;13.80;;;6.53;;
25503;SDS011;13410;52.114;5.718;2023-05-31T02:27:28;13.07;;;6.70;;
25503;SDS011;13410;52.114;5.718;2023-05-31T02:29:54;13.80;;;6.65;;
25503;SDS011;13410;52.114;5.718;2023-05-31T02:32:19;11.98;;;6.75;;
25503;SDS011;13410;52.114;5.718;2023-05-31T02:34:45;15.52;;;6.90;;
25503;SDS011;13410;52.114;5.718;2023-05-31T02:37:10;11.50;;;6.65;;
25503;SDS011;13410;52.114;5.718;2023-05-31T02:39:36;12.73;;;6.65;;
25503;SDS011;13410;52.114;5.718;2023-05-31T02:42:01;11.05;;;6.90;;
25503;SDS011;13410;52.114;5.718;2023-05-31T02:44:27;11.20;;;6.47;;
25503;SDS011;13410;52.114;5.718;2023-05-31T02:46:53;10.75;;;6.03;;
25503;SDS011;13410;52.114;5.718;2023-05-31T02:49:18;14.05;;;6.82;;
25503;SDS011;13410;52.114;5.718;2023-05-31T02:51:44;14.18;;;7.60;;
25503;SDS011;13410;52.114;5.718;2023-05-31T02:54:09;12.85;;;7.20;;
25503;SDS011;13410;52.114;5.718;2023-05-31T02:56:35;12.38;;;7.35;;
25503;SDS011;13410;52.114;5.718;2023-05-31T02:59:01;14.82;;;7.38;;
25503;SDS011;13410;52.114;5.718;2023-05-31T03:01:27;13.90;;;7.20;;
25503;SDS011;13410;52.114;5.718;2023-05-31T03:03:53;12.18;;;7.07;;
25503;SDS011;13410;52.114;5.718;2023-05-31T03:06:18;13.95;;;7.57;;
25503;SDS011;13410;52.114;5.718;2023-05-31T03:08:44;16.25;;;7.25;;
25503;SDS011;13410;52.114;5.718;2023-05-31T03:11:10;14.85;;;7.45;;
25503;SDS011;13410;52.114;5.718;2023-05-31T03:13:36;16.40;;;7.88;;
25503;SDS011;13410;52.114;5.718;2023-05-31T03:16:01;15.65;;;8.07;;
25503;SDS011;13410;52.114;5.718;2023-05-31T03:18:27;14.32;;;8.02;;
25503;SDS011;13410;52.114;5.718;2023-05-31T03:20:52;14.52;;;7.70;;
25503;SDS011;13410;52.114;5.718;2023-05-31T03:23:18;14.82;;;7.85;;
25503;SDS011;13410;52.114;5.718;2023-05-31T03:25:43;17.52;;;8.63;;
25503;SDS011;13410;52.114;5.718;2023-05-31T03:28:09;13.70;;;8.10;;
25503;SDS011;13410;52.114;5.718;2023-05-31T03:30:35;16.17;;;8.00;;
25503;SDS011;13410;52.114;5.718;2023-05-31T03:33:01;15.85;;;8.32;;
25503;SDS011;13410;52.114;5.718;2023-05-31T03:35:27;16.50;;;8.70;;
25503;SDS011;13410;52.114;5.718;2023-05-31T03:37:53;18.20;;;7.82;;
25503;SDS011;13410;52.114;5.718;2023-05-31T03:40:19;16.58;;;8.82;;
25503;SDS011;13410;52.114;5.718;2023-05-31T03:42:45;15.23;;;8.23;;
25503;SDS011;13410;52.114;5.718;2023-05-31T03:45:10;18.50;;;10.00;;
25503;SDS011;13410;52.114;5.718;2023-05-31T03:47:36;16.25;;;8.50;;
25503;SDS011;13410;52.114;5.718;2023-05-31T03:50:04;14.15;;;8.43;;
25503;SDS011;13410;52.114;5.718;2023-05-31T03:52:31;17.10;;;8.10;;
25503;SDS011;13410;52.114;5.718;2023-05-31T03:54:56;18.42;;;9.15;;
25503;SDS011;13410;52.114;5.718;2023-05-31T03:57:22;17.02;;;9.25;;
25503;SDS011;13410;52.114;5.718;2023-05-31T03:59:48;15.00;;;8.43;;
25503;SDS011;13410;52.114;5.718;2023-05-31T04:02:13;13.38;;;7.32;;
25503;SDS011;13410;52.114;5.718;2023-05-31T04:04:39;12.32;;;6.97;;
25503;SDS011;13410;52.114;5.718;2023-05-31T04:07:05;11.80;;;7.00;;
25503;SDS011;13410;52.114;5.718;2023-05-31T04:09:30;12.60;;;7.03;;
25503;SDS011;13410;52.114;5.718;2023-05-31T04:11:56;11.45;;;6.20;;
25503;SDS011;13410;52.114;5.718;2023-05-31T04:14:22;10.98;;;6.57;;
25503;SDS011;13410;52.114;5.718;2023-05-31T04:16:47;12.20;;;6.63;;
25503;SDS011;13410;52.114;5.718;2023-05-31T04:19:13;13.05;;;6.50;;
25503;SDS011;13410;52.114;5.718;2023-05-31T04:21:38;10.02;;;6.20;;
25503;SDS011;13410;52.114;5.718;2023-05-31T04:24:04;10.75;;;6.45;;
25503;SDS011;13410;52.114;5.718;2023-05-31T04:26:30;11.60;;;6.78;;
25503;SDS011;13410;52.114;5.718;2023-05-31T04:28:58;12.65;;;6.20;;
25503;SDS011;13410;52.114;5.718;2023-05-31T04:31:25;11.70;;;6.57;;
25503;SDS011;13410;52.114;5.718;2023-05-31T04:33:51;13.35;;;6.53;;
25503;SDS011;13410;52.114;5.718;2023-05-31T04:36:22;10.70;;;6.13;;
25503;SDS011;13410;52.114;5.718;2023-05-31T04:38:50;11.43;;;6.45;;
25503;SDS011;13410;52.114;5.718;2023-05-31T04:41:20;13.23;;;6.80;;
25503;SDS011;13410;52.114;5.718;2023-05-31T04:43:52;9.73;;;6.78;;
25503;SDS011;13410;52.114;5.718;2023-05-31T04:46:18;11.75;;;6.40;;
25503;SDS011;13410;52.114;5.718;2023-05-31T04:48:46;10.32;;;6.40;;
25503;SDS011;13410;52.114;5.718;2023-05-31T04:51:15;11.52;;;6.70;;
25503;SDS011;13410;52.114;5.718;2023-05-31T04:53:44;10.95;;;6.43;;
25503;SDS011;13410;52.114;5.718;2023-05-31T04:56:11;10.18;;;6.75;;
25503;SDS011;13410;52.114;5.718;2023-05-31T04:58:37;10.50;;;6.65;;
25503;SDS011;13410;52.114;5.718;2023-05-31T05:01:03;12.20;;;6.90;;
25503;SDS011;13410;52.114;5.718;2023-05-31T05:03:29;14.13;;;7.07;;
25503;SDS011;13410;52.114;5.718;2023-05-31T05:05:56;11.55;;;7.03;;
25503;SDS011;13410;52.114;5.718;2023-05-31T05:08:21;12.95;;;7.35;;
25503;SDS011;13410;52.114;5.718;2023-05-31T05:10:47;11.18;;;6.95;;
25503;SDS011;13410;52.114;5.718;2023-05-31T05:13:14;16.40;;;7.70;;
25503;SDS011;13410;52.114;5.718;2023-05-31T05:15:41;11.57;;;7.07;;
25503;SDS011;13410;52.114;5.718;2023-05-31T05:18:06;13.07;;;7.25;;
25503;SDS011;13410;52.114;5.718;2023-05-31T05:20:32;11.82;;;7.50;;
25503;SDS011;13410;52.114;5.718;2023-05-31T05:22:58;13.05;;;7.95;;
25503;SDS011;13410;52.114;5.718;2023-05-31T05:25:27;11.55;;;7.00;;
25503;SDS011;13410;52.114;5.718;2023-05-31T05:27:53;10.68;;;7.32;;
25503;SDS011;13410;52.114;5.718;2023-05-31T05:30:19;12.70;;;8.18;;
25503;SDS011;13410;52.114;5.718;2023-05-31T05:32:44;14.38;;;7.90;;
25503;SDS011;13410;52.114;5.718;2023-05-31T05:35:10;12.57;;;8.10;;
25503;SDS011;13410;52.114;5.718;2023-05-31T05:37:36;11.52;;;7.13;;
25503;SDS011;13410;52.114;5.718;2023-05-31T05:40:02;12.43;;;7.80;;
25503;SDS011;13410;52.114;5.718;2023-05-31T05:42:29;13.95;;;7.70;;
25503;SDS011;13410;52.114;5.718;2023-05-31T05:44:57;24.42;;;8.07;;
25503;SDS011;13410;52.114;5.718;2023-05-31T05:47:22;56.10;;;10.05;;
25503;SDS011;13410;52.114;5.718;2023-05-31T05:49:48;12.60;;;7.68;;
25503;SDS011;13410;52.114;5.718;2023-05-31T05:52:13;10.80;;;7.15;;
25503;SDS011;13410;52.114;5.718;2023-05-31T05:54:39;11.82;;;7.47;;
25503;SDS011;13410;52.114;5.718;2023-05-31T05:57:04;12.23;;;7.15;;
25503;SDS011;13410;52.114;5.718;2023-05-31T05:59:31;10.02;;;7.38;;
25503;SDS011;13410;52.114;5.718;2023-05-31T06:01:56;12.68;;;7.05;;
25503;SDS011;13410;52.114;5.718;2023-05-31T06:04:22;12.73;;;7.15;;
25503;SDS011;13410;52.114;5.718;2023-05-31T06:06:47;11.05;;;7.35;;
25503;SDS011;13410;52.114;5.718;2023-05-31T06:09:13;10.50;;;7.18;;
25503;SDS011;13410;52.114;5.718;2023-05-31T06:11:38;11.20;;;6.85;;
25503;SDS011;13410;52.114;5.718;2023-05-31T06:14:04;12.75;;;7.03;;
25503;SDS011;13410;52.114;5.718;2023-05-31T06:16:30;12.18;;;6.90;;
25503;SDS011;13410;52.114;5.718;2023-05-31T06:18:55;12.05;;;6.88;;
25503;SDS011;13410;52.114;5.718;2023-05-31T06:21:21;9.10;;;6.47;;
25503;SDS011;13410;52.114;5.718;2023-05-31T06:23:46;10.63;;;6.45;;
25503;SDS011;13410;52.114;5.718;2023-05-31T06:26:12;8.93;;;6.00;;
25503;SDS011;13410;52.114;5.718;2023-05-31T06:28:38;13.13;;;6.60;;
25503;SDS011;13410;52.114;5.718;2023-05-31T06:31:03;10.80;;;6.20;;
25503;SDS011;13410;52.114;5.718;2023-05-31T06:33:29;11.43;;;6.80;;
25503;SDS011;13410;52.114;5.718;2023-05-31T06:35:54;9.65;;;6.25;;
25503;SDS011;13410;52.114;5.718;2023-05-31T06:38:20;10.02;;;6.05;;
25503;SDS011;13410;52.114;5.718;2023-05-31T06:40:46;10.68;;;6.28;;
25503;SDS011;13410;52.114;5.718;2023-05-31T06:43:12;10.30;;;6.20;;
25503;SDS011;13410;52.114;5.718;2023-05-31T06:45:40;9.55;;;5.68;;
25503;SDS011;13410;52.114;5.718;2023-05-31T06:48:07;10.70;;;6.03;;
25503;SDS011;13410;52.114;5.718;2023-05-31T06:50:34;9.35;;;5.70;;
25503;SDS011;13410;52.114;5.718;2023-05-31T06:52:59;10.52;;;5.75;;
25503;SDS011;13410;52.114;5.718;2023-05-31T06:55:25;11.35;;;5.80;;
25503;SDS011;13410;52.114;5.718;2023-05-31T06:57:51;8.27;;;5.28;;
25503;SDS011;13410;52.114;5.718;2023-05-31T07:00:17;9.88;;;5.43;;
25503;SDS011;13410;52.114;5.718;2023-05-31T07:02:42;10.32;;;5.70;;
25503;SDS011;13410;52.114;5.718;2023-05-31T07:05:08;10.10;;;5.75;;
25503;SDS011;13410;52.114;5.718;2023-05-31T07:07:34;9.85;;;5.55;;
25503;SDS011;13410;52.114;5.718;2023-05-31T07:09:59;11.85;;;5.80;;
25503;SDS011;13410;52.114;5.718;2023-05-31T07:12:25;9.23;;;5.00;;
25503;SDS011;13410;52.114;5.718;2023-05-31T07:14:51;9.98;;;5.40;;
25503;SDS011;13410;52.114;5.718;2023-05-31T07:17:17;10.27;;;5.20;;
25503;SDS011;13410;52.114;5.718;2023-05-31T07:19:45;9.90;;;5.95;;
25503;SDS011;13410;52.114;5.718;2023-05-31T07:22:14;9.27;;;5.38;;
25503;SDS011;13410;52.114;5.718;2023-05-31T07:24:40;9.32;;;5.05;;
25503;SDS011;13410;52.114;5.718;2023-05-31T07:27:06;11.35;;;5.50;;
25503;SDS011;13410;52.114;5.718;2023-05-31T07:29:32;10.60;;;5.07;;
25503;SDS011;13410;52.114;5.718;2023-05-31T07:31:58;9.30;;;5.30;;
25503;SDS011;13410;52.114;5.718;2023-05-31T07:34:24;8.63;;;5.00;;
25503;SDS011;13410;52.114;5.718;2023-05-31T07:36:49;7.68;;;5.05;;
25503;SDS011;13410;52.114;5.718;2023-05-31T07:39:15;8.82;;;5.28;;
25503;SDS011;13410;52.114;5.718;2023-05-31T07:41:41;9.98;;;5.78;;
25503;SDS011;13410;52.114;5.718;2023-05-31T07:44:07;9.13;;;5.47;;
25503;SDS011;13410;52.114;5.718;2023-05-31T07:46:34;9.23;;;5.40;;
25503;SDS011;13410;52.114;5.718;2023-05-31T07:49:01;8.70;;;5.15;;
25503;SDS011;13410;52.114;5.718;2023-05-31T07:51:30;8.23;;;5.07;;
25503;SDS011;13410;52.114;5.718;2023-05-31T07:53:56;7.85;;;4.95;;
25503;SDS011;13410;52.114;5.718;2023-05-31T07:56:22;9.25;;;5.30;;
25503;SDS011;13410;52.114;5.718;2023-05-31T07:58:48;10.32;;;5.18;;
25503;SDS011;13410;52.114;5.718;2023-05-31T08:01:13;10.27;;;5.13;;
25503;SDS011;13410;52.114;5.718;2023-05-31T08:03:40;14.73;;;5.85;;
25503;SDS011;13410;52.114;5.718;2023-05-31T08:06:06;10.15;;;5.35;;
25503;SDS011;13410;52.114;5.718;2023-05-31T08:08:32;8.27;;;4.70;;
25503;SDS011;13410;52.114;5.718;2023-05-31T08:10:59;7.63;;;4.60;;
25503;SDS011;13410;52.114;5.718;2023-05-31T08:13:25;9.98;;;4.90;;
25503;SDS011;13410;52.114;5.718;2023-05-31T08:15:51;9.93;;;5.03;;
25503;SDS011;13410;52.114;5.718;2023-05-31T08:18:17;12.68;;;5.18;;
25503;SDS011;13410;52.114;5.718;2023-05-31T08:20:43;11.10;;;4.88;;
25503;SDS011;13410;52.114;5.718;2023-05-31T08:23:08;11.18;;;4.95;;
25503;SDS011;13410;52.114;5.718;2023-05-31T08:25:41;11.35;;;4.65;;
25503;SDS011;13410;52.114;5.718;2023-05-31T08:28:07;13.77;;;4.88;;
25503;SDS011;13410;52.114;5.718;2023-05-31T08:30:32;12.38;;;4.75;;
25503;SDS011;13410;52.114;5.718;2023-05-31T08:32:58;11.88;;;4.80;;
25503;SDS011;13410;52.114;5.718;2023-05-31T08:35:23;10.50;;;4.60;;
25503;SDS011;13410;52.114;5.718;2023-05-31T08:37:49;8.50;;;4.32;;
25503;SDS011;13410;52.114;5.718;2023-05-31T08:40:15;7.95;;;3.88;;
25503;SDS011;13410;52.114;5.718;2023-05-31T08:42:48;9.35;;;3.97;;
25503;SDS011;13410;52.114;5.718;2023-05-31T08:45:20;9.02;;;3.53;;
25503;SDS011;13410;52.114;5.718;2023-05-31T08:47:51;7.32;;;3.83;;
25503;SDS011;13410;52.114;5.718;2023-05-31T08:50:25;9.38;;;4.10;;
25503;SDS011;13410;52.114;5.718;2023-05-31T08:52:52;6.47;;;3.78;;
25503;SDS011;13410;52.114;5.718;2023-05-31T08:55:20;11.20;;;4.00;;
25503;SDS011;13410;52.114;5.718;2023-05-31T08:57:46;13.13;;;4.10;;
25503;SDS011;13410;52.114;5.718;2023-05-31T09:00:12;9.65;;;3.60;;
25503;SDS011;13410;52.114;5.718;2023-05-31T09:02:41;7.57;;;3.60;;
25503;SDS011;13410;52.114;5.718;2023-05-31T09:05:09;9.82;;;3.25;;
25503;SDS011;13410;52.114;5.718;2023-05-31T09:07:36;7.40;;;3.90;;
25503;SDS011;13410;52.114;5.718;2023-05-31T09:10:03;8.15;;;3.78;;
25503;SDS011;13410;52.114;5.718;2023-05-31T09:12:30;7.50;;;3.70;;
25503;SDS011;13410;52.114;5.718;2023-05-31T09:14:56;7.05;;;3.40;;
25503;SDS011;13410;52.114;5.718;2023-05-31T09:17:22;8.45;;;3.10;;
25503;SDS011;13410;52.114;5.718;2023-05-31T09:19:49;7.68;;;3.10;;
25503;SDS011;13410;52.114;5.718;2023-05-31T09:22:17;9.35;;;3.17;;
25503;SDS011;13410;52.114;5.718;2023-05-31T09:24:49;8.13;;;3.22;;
25503;SDS011;13410;52.114;5.718;2023-05-31T09:27:19;8.02;;;3.47;;
25503;SDS011;13410;52.114;5.718;2023-05-31T09:29:50;8.52;;;3.35;;
25503;SDS011;13410;52.114;5.718;2023-05-31T09:32:17;11.60;;;3.38;;
25503;SDS011;13410;52.114;5.718;2023-05-31T09:34:43;8.95;;;3.05;;
25503;SDS011;13410;52.114;5.718;2023-05-31T09:37:08;9.05;;;3.42;;
25503;SDS011;13410;52.114;5.718;2023-05-31T09:39:34;12.20;;;4.22;;
25503;SDS011;13410;52.114;5.718;2023-05-31T09:42:00;12.07;;;3.70;;
25503;SDS011;13410;52.114;5.718;2023-05-31T09:44:26;7.82;;;3.30;;
25503;SDS011;13410;52.114;5.718;2023-05-31T09:46:55;7.28;;;3.47;;
25503;SDS011;13410;52.114;5.718;2023-05-31T09:49:21;9.57;;;3.55;;
25503;SDS011;13410;52.114;5.718;2023-05-31T09:51:50;8.52;;;3.30;;
25503;SDS011;13410;52.114;5.718;2023-05-31T09:54:17;10.20;;;3.60;;
25503;SDS011;13410;52.114;5.718;2023-05-31T09:56:47;10.00;;;3.92;;
25503;SDS011;13410;52.114;5.718;2023-05-31T09:59:14;6.40;;;3.20;;
25503;SDS011;13410;52.114;5.718;2023-05-31T10:01:40;9.75;;;3.53;;
25503;SDS011;13410;52.114;5.718;2023-05-31T10:04:06;7.15;;;3.50;;
25503;SDS011;13410;52.114;5.718;2023-05-31T10:06:32;7.28;;;3.45;;
25503;SDS011;13410;52.114;5.718;2023-05-31T10:09:10;6.65;;;2.90;;
25503;SDS011;13410;52.114;5.718;2023-05-31T10:11:36;7.82;;;3.45;;
25503;SDS011;13410;52.114;5.718;2023-05-31T10:14:10;7.20;;;3.38;;
25503;SDS011;13410;52.114;5.718;2023-05-31T10:16:48;10.02;;;2.95;;
25503;SDS011;13410;52.114;5.718;2023-05-31T10:19:22;8.43;;;3.28;;
25503;SDS011;13410;52.114;5.718;2023-05-31T10:21:51;7.88;;;2.90;;
25503;SDS011;13410;52.114;5.718;2023-05-31T10:24:29;8.23;;;2.90;;
25503;SDS011;13410;52.114;5.718;2023-05-31T10:27:16;7.28;;;2.70;;
25503;SDS011;13410;52.114;5.718;2023-05-31T10:29:51;8.57;;;3.20;;
25503;SDS011;13410;52.114;5.718;2023-05-31T10:32:19;11.55;;;3.33;;
25503;SDS011;13410;52.114;5.718;2023-05-31T10:34:51;9.95;;;3.47;;
25503;SDS011;13410;52.114;5.718;2023-05-31T10:37:18;8.05;;;3.10;;
25503;SDS011;13410;52.114;5.718;2023-05-31T10:39:47;7.13;;;3.35;;
25503;SDS011;13410;52.114;5.718;2023-05-31T10:42:27;6.50;;;3.30;;
25503;SDS011;13410;52.114;5.718;2023-05-31T10:47:33;8.43;;;2.95;;
25503;SDS011;13410;52.114;5.718;2023-05-31T10:50:20;7.75;;;3.65;;
25503;SDS011;13410;52.114;5.718;2023-05-31T10:52:49;10.25;;;3.25;;
25503;SDS011;13410;52.114;5.718;2023-05-31T10:55:32;7.28;;;3.17;;
25503;SDS011;13410;52.114;5.718;2023-05-31T10:58:28;8.05;;;3.30;;
25503;SDS011;13410;52.114;5.718;2023-05-31T11:00:55;8.57;;;3.65;;
25503;SDS011;13410;52.114;5.718;2023-05-31T11:03:22;7.50;;;3.47;;
25503;SDS011;13410;52.114;5.718;2023-05-31T11:05:58;9.48;;;3.40;;
25503;SDS011;13410;52.114;5.718;2023-05-31T11:08:30;7.32;;;3.00;;
25503;SDS011;13410;52.114;5.718;2023-05-31T11:13:57;8.57;;;3.35;;
25503;SDS011;13410;52.114;5.718;2023-05-31T11:16:27;10.85;;;3.58;;
25503;SDS011;13410;52.114;5.718;2023-05-31T11:19:04;8.57;;;3.70;;
25503;SDS011;13410;52.114;5.718;2023-05-31T11:21:51;7.05;;;3.53;;
25503;SDS011;13410;52.114;5.718;2023-05-31T11:24:31;6.93;;;3.40;;
25503;SDS011;13410;52.114;5.718;2023-05-31T11:27:04;9.70;;;3.67;;
25503;SDS011;13410;52.114;5.718;2023-05-31T11:32:15;7.63;;;3.10;;
25503;SDS011;13410;52.114;5.718;2023-05-31T11:34:50;10.05;;;3.90;;
25503;SDS011;13410;52.114;5.718;2023-05-31T11:37:19;7.40;;;3.25;;
25503;SDS011;13410;52.114;5.718;2023-05-31T11:39:46;9.20;;;3.30;;
25503;SDS011;13410;52.114;5.718;2023-05-31T11:42:13;6.93;;;3.30;;
25503;SDS011;13410;52.114;5.718;2023-05-31T11:44:42;9.40;;;3.50;;
25503;SDS011;13410;52.114;5.718;2023-05-31T11:47:10;7.10;;;2.83;;
25503;SDS011;13410;52.114;5.718;2023-05-31T11:49:42;7.72;;;3.30;;
25503;SDS011;13410;52.114;5.718;2023-05-31T11:52:08;8.18;;;3.20;;
25503;SDS011;13410;52.114;5.718;2023-05-31T11:54:34;9.35;;;3.20;;
25503;SDS011;13410;52.114;5.718;2023-05-31T11:57:04;6.80;;;2.80;;
25503;SDS011;13410;52.114;5.718;2023-05-31T11:59:33;7.95;;;2.70;;
25503;SDS011;13410;52.114;5.718;2023-05-31T12:02:01;9.25;;;3.33;;
25503;SDS011;13410;52.114;5.718;2023-05-31T12:04:35;7.10;;;2.67;;
25503;SDS011;13410;52.114;5.718;2023-05-31T12:07:06;8.27;;;3.22;;
25503;SDS011;13410;52.114;5.718;2023-05-31T12:09:42;5.78;;;2.75;;
25503;SDS011;13410;52.114;5.718;2023-05-31T12:12:08;6.82;;;3.13;;
25503;SDS011;13410;52.114;5.718;2023-05-31T12:14:35;7.63;;;3.22;;
25503;SDS011;13410;52.114;5.718;2023-05-31T12:17:04;6.78;;;2.85;;
25503;SDS011;13410;52.114;5.718;2023-05-31T12:19:31;8.20;;;3.17;;
25503;SDS011;13410;52.114;5.718;2023-05-31T12:21:57;7.22;;;2.85;;
25503;SDS011;13410;52.114;5.718;2023-05-31T12:24:23;6.28;;;3.05;;
25503;SDS011;13410;52.114;5.718;2023-05-31T12:26:49;12.32;;;3.38;;
25503;SDS011;13410;52.114;5.718;2023-05-31T12:29:16;8.20;;;3.28;;
25503;SDS011;13410;52.114;5.718;2023-05-31T12:31:42;7.63;;;3.45;;
25503;SDS011;13410;52.114;5.718;2023-05-31T12:34:12;8.10;;;3.20;;
25503;SDS011;13410;52.114;5.718;2023-05-31T12:39:28;9.90;;;3.47;;
25503;SDS011;13410;52.114;5.718;2023-05-31T12:41:53;8.02;;;3.38;;
25503;SDS011;13410;52.114;5.718;2023-05-31T12:44:19;5.53;;;3.30;;
25503;SDS011;13410;52.114;5.718;2023-05-31T12:46:46;9.50;;;3.50;;
25503;SDS011;13410;52.114;5.718;2023-05-31T12:49:14;5.78;;;3.15;;
25503;SDS011;13410;52.114;5.718;2023-05-31T12:52:09;10.75;;;3.30;;
25503;SDS011;13410;52.114;5.718;2023-05-31T12:54:40;10.25;;;3.70;;
25503;SDS011;13410;52.114;5.718;2023-05-31T12:57:06;6.05;;;2.67;;
25503;SDS011;13410;52.114;5.718;2023-05-31T12:59:36;4.97;;;3.22;;
25503;SDS011;13410;52.114;5.718;2023-05-31T13:02:03;9.10;;;3.28;;
25503;SDS011;13410;52.114;5.718;2023-05-31T13:04:29;6.65;;;3.38;;
25503;SDS011;13410;52.114;5.718;2023-05-31T13:06:55;7.40;;;3.28;;
25503;SDS011;13410;52.114;5.718;2023-05-31T13:09:24;9.02;;;3.33;;
25503;SDS011;13410;52.114;5.718;2023-05-31T13:11:50;7.68;;;2.70;;
25503;SDS011;13410;52.114;5.718;2023-05-31T13:14:17;7.07;;;2.85;;
25503;SDS011;13410;52.114;5.718;2023-05-31T13:16:43;6.10;;;3.20;;
25503;SDS011;13410;52.114;5.718;2023-05-31T13:19:11;8.70;;;3.53;;
25503;SDS011;13410;52.114;5.718;2023-05-31T13:21:37;6.80;;;3.08;;
25503;SDS011;13410;52.114;5.718;2023-05-31T13:24:03;6.47;;;3.10;;
25503;SDS011;13410;52.114;5.718;2023-05-31T13:26:31;7.63;;;3.00;;
25503;SDS011;13410;52.114;5.718;2023-05-31T13:28:58;6.90;;;3.10;;
25503;SDS011;13410;52.114;5.718;2023-05-31T13:31:26;8.30;;;3.10;;
25503;SDS011;13410;52.114;5.718;2023-05-31T13:33:53;5.28;;;2.70;;
25503;SDS011;13410;52.114;5.718;2023-05-31T13:36:20;4.78;;;2.78;;
25503;SDS011;13410;52.114;5.718;2023-05-31T13:38:47;4.70;;;3.20;;
25503;SDS011;13410;52.114;5.718;2023-05-31T13:41:14;6.65;;;3.00;;
25503;SDS011;13410;52.114;5.718;2023-05-31T13:43:39;4.53;;;2.67;;
25503;SDS011;13410;52.114;5.718;2023-05-31T13:46:05;7.40;;;3.00;;
25503;SDS011;13410;52.114;5.718;2023-05-31T13:51:02;10.32;;;3.00;;
25503;SDS011;13410;52.114;5.718;2023-05-31T13:53:28;3.80;;;2.53;;
25503;SDS011;13410;52.114;5.718;2023-05-31T13:55:54;8.75;;;2.67;;
25503;SDS011;13410;52.114;5.718;2023-05-31T13:58:20;6.68;;;2.42;;
25503;SDS011;13410;52.114;5.718;2023-05-31T14:00:46;7.32;;;3.33;;
25503;SDS011;13410;52.114;5.718;2023-05-31T14:03:12;6.35;;;3.13;;
25503;SDS011;13410;52.114;5.718;2023-05-31T14:05:38;6.63;;;3.00;;
25503;SDS011;13410;52.114;5.718;2023-05-31T14:08:04;6.80;;;2.80;;
25503;SDS011;13410;52.114;5.718;2023-05-31T14:10:31;6.60;;;3.20;;
25503;SDS011;13410;52.114;5.718;2023-05-31T14:12:57;5.90;;;2.90;;
25503;SDS011;13410;52.114;5.718;2023-05-31T14:15:22;10.10;;;3.90;;
25503;SDS011;13410;52.114;5.718;2023-05-31T14:17:48;9.35;;;3.30;;
25503;SDS011;13410;52.114;5.718;2023-05-31T14:20:14;5.47;;;3.00;;
25503;SDS011;13410;52.114;5.718;2023-05-31T14:22:39;7.47;;;2.90;;
25503;SDS011;13410;52.114;5.718;2023-05-31T14:25:05;6.53;;;3.20;;
25503;SDS011;13410;52.114;5.718;2023-05-31T14:27:33;6.70;;;3.40;;
25503;SDS011;13410;52.114;5.718;2023-05-31T14:29:58;6.38;;;3.10;;
25503;SDS011;13410;52.114;5.718;2023-05-31T14:32:24;5.43;;;3.00;;
25503;SDS011;13410;52.114;5.718;2023-05-31T14:34:49;7.25;;;3.25;;
25503;SDS011;13410;52.114;5.718;2023-05-31T14:37:15;8.35;;;3.42;;
25503;SDS011;13410;52.114;5.718;2023-05-31T14:39:42;7.60;;;3.35;;
25503;SDS011;13410;52.114;5.718;2023-05-31T14:42:08;7.90;;;3.50;;
25503;SDS011;13410;52.114;5.718;2023-05-31T14:44:34;5.80;;;3.63;;
25503;SDS011;13410;52.114;5.718;2023-05-31T14:47:03;6.65;;;3.50;;
25503;SDS011;13410;52.114;5.718;2023-05-31T14:49:29;4.38;;;2.92;;
25503;SDS011;13410;52.114;5.718;2023-05-31T14:51:55;6.72;;;3.10;;
25503;SDS011;13410;52.114;5.718;2023-05-31T14:54:22;6.28;;;2.60;;
25503;SDS011;13410;52.114;5.718;2023-05-31T14:56:48;7.72;;;3.38;;
25503;SDS011;13410;52.114;5.718;2023-05-31T14:59:14;6.18;;;3.00;;
25503;SDS011;13410;52.114;5.718;2023-05-31T15:01:40;5.15;;;3.05;;
25503;SDS011;13410;52.114;5.718;2023-05-31T15:04:13;6.00;;;3.40;;
25503;SDS011;13410;52.114;5.718;2023-05-31T15:06:40;10.68;;;3.72;;